createdAt,value
2022-12-18T00:00:29.202Z,77.17
2022-12-18T00:02:59.878Z,73.50
2022-12-18T00:05:28.836Z,78.67
2022-12-18T00:07:57.619Z,72.07
2022-12-18T00:10:26.406Z,72.03
2022-12-18T00:12:55.187Z,76.63
2022-12-18T00:15:23.988Z,74.43
2022-12-18T00:17:52.760Z,77.80
2022-12-18T00:20:26.722Z,66.77
2022-12-18T00:22:56.145Z,62.73
2022-12-18T00:25:25.793Z,62.33
2022-12-18T00:27:54.504Z,60.23
2022-12-18T00:30:23.295Z,65.00
2022-12-18T00:32:52.153Z,63.53
2022-12-18T00:35:22.279Z,62.10
2022-12-18T00:37:51.142Z,63.77
2022-12-18T00:40:20.040Z,61.43
2022-12-18T00:42:56.829Z,61.77
2022-12-18T00:45:30.772Z,64.03
2022-12-18T00:47:59.991Z,66.73
2022-12-18T00:50:30.263Z,72.00
2022-12-18T00:52:58.947Z,68.90
2022-12-18T00:55:28.035Z,65.73
2022-12-18T00:57:56.919Z,74.17
2022-12-18T01:00:26.140Z,73.43
2022-12-18T01:02:55.052Z,73.00
2022-12-18T01:05:23.838Z,75.53
2022-12-18T01:07:55.183Z,79.37
2022-12-18T01:10:24.611Z,71.17
2022-12-18T01:12:53.580Z,76.50
2022-12-18T01:15:22.541Z,74.23
2022-12-18T01:17:51.333Z,66.93
2022-12-18T01:20:20.220Z,63.90
2022-12-18T01:22:48.944Z,69.80
2022-12-18T01:25:19.274Z,68.73
2022-12-18T01:27:48.053Z,59.43
2022-12-18T01:30:17.228Z,69.70
2022-12-18T01:32:46.161Z,66.83
2022-12-18T01:35:14.960Z,68.90
2022-12-18T01:37:43.708Z,64.70
2022-12-18T01:40:12.902Z,65.53
2022-12-18T01:42:43.132Z,64.87
2022-12-18T01:45:27.339Z,65.33
2022-12-18T01:47:58.422Z,59.53
2022-12-18T01:50:31.012Z,66.87
2022-12-18T01:53:04.324Z,61.57
2022-12-18T01:55:39.019Z,54.47
2022-12-18T01:58:09.209Z,60.87
2022-12-18T02:00:38.190Z,61.07
2022-12-18T02:03:07.035Z,58.30
2022-12-18T02:05:47.087Z,61.20
2022-12-18T02:08:22.959Z,57.00
2022-12-18T02:10:59.633Z,57.23
2022-12-18T02:13:38.900Z,60.80
2022-12-18T02:16:16.194Z,57.03
2022-12-18T02:18:50.083Z,55.37
2022-12-18T02:21:33.001Z,57.03
2022-12-18T02:24:20.156Z,51.37
2022-12-18T02:26:53.284Z,55.43
2022-12-18T02:29:29.451Z,51.47
2022-12-18T02:32:04.725Z,51.83
2022-12-18T02:34:36.371Z,50.67
2022-12-18T02:37:09.975Z,58.20
2022-12-18T02:39:42.171Z,56.37
2022-12-18T02:42:14.786Z,55.10
2022-12-18T02:44:47.754Z,60.90
2022-12-18T02:47:22.472Z,59.50
2022-12-18T02:50:00.318Z,60.23
2022-12-18T02:52:39.708Z,67.70
2022-12-18T02:55:21.635Z,73.90
2022-12-18T02:58:00.917Z,66.23
2022-12-18T03:00:40.367Z,66.70
2022-12-18T03:03:14.393Z,60.27
2022-12-18T03:05:48.386Z,61.73
2022-12-18T03:08:21.161Z,56.97
2022-12-18T03:10:56.354Z,62.17
2022-12-18T03:13:35.004Z,63.20
2022-12-18T03:16:07.933Z,54.77
2022-12-18T03:18:41.102Z,51.07
2022-12-18T03:21:12.139Z,58.63
2022-12-18T03:23:45.035Z,53.97
2022-12-18T03:26:18.301Z,56.50
2022-12-18T03:28:53.043Z,56.63
2022-12-18T03:31:24.818Z,54.03
2022-12-18T03:33:56.768Z,52.77
2022-12-18T03:36:35.511Z,61.03
2022-12-18T03:39:04.357Z,60.33
2022-12-18T03:41:45.839Z,60.90
2022-12-18T03:44:40.971Z,60.23
2022-12-18T03:47:15.099Z,53.60
2022-12-18T03:49:58.654Z,50.10
2022-12-18T03:52:32.645Z,49.10
2022-12-18T03:55:04.422Z,52.73
2022-12-18T03:57:35.508Z,57.90
2022-12-18T04:00:10.715Z,50.10
2022-12-18T04:03:12.510Z,54.97
2022-12-18T04:05:48.121Z,52.83
2022-12-18T04:08:19.441Z,51.47
2022-12-18T04:10:55.443Z,54.60
2022-12-18T04:13:25.284Z,47.20
2022-12-18T04:15:55.671Z,52.23
2022-12-18T04:18:25.828Z,51.13
2022-12-18T04:20:54.992Z,48.23
2022-12-18T04:23:24.866Z,52.40
2022-12-18T04:25:55.328Z,49.03
2022-12-18T04:28:38.271Z,51.03
2022-12-18T04:31:08.657Z,50.80
2022-12-18T04:33:38.072Z,53.33
2022-12-18T04:36:08.422Z,50.50
2022-12-18T04:38:37.354Z,50.83
2022-12-18T04:41:10.364Z,57.23
2022-12-18T04:43:39.472Z,48.87
2022-12-18T04:46:11.240Z,47.63
2022-12-18T04:48:40.001Z,58.43
2022-12-18T04:51:09.038Z,45.80
2022-12-18T04:53:38.073Z,52.03
2022-12-18T04:56:09.177Z,49.77
2022-12-18T04:58:37.919Z,51.03
2022-12-18T05:01:06.816Z,46.33
2022-12-18T05:03:38.651Z,48.63
2022-12-18T05:06:08.927Z,48.80
2022-12-18T05:08:37.773Z,45.60
2022-12-18T05:11:08.365Z,50.63
2022-12-18T05:13:39.184Z,45.40
2022-12-18T05:16:09.375Z,44.73
2022-12-18T05:18:40.248Z,46.53
2022-12-18T05:21:08.885Z,47.90
2022-12-18T05:23:38.107Z,42.43
2022-12-18T05:26:09.004Z,45.13
2022-12-18T05:28:38.860Z,41.50
2022-12-18T05:31:07.906Z,47.57
2022-12-18T05:33:39.391Z,41.80
2022-12-18T05:36:10.380Z,44.33
2022-12-18T05:38:41.417Z,46.47
2022-12-18T05:41:11.077Z,43.80
2022-12-18T05:43:41.874Z,43.73
2022-12-18T05:46:14.413Z,37.90
2022-12-18T05:48:45.447Z,38.57
2022-12-18T05:51:18.752Z,40.87
2022-12-18T05:53:47.589Z,43.03
2022-12-18T05:56:17.742Z,41.23
2022-12-18T05:58:46.463Z,39.43
2022-12-18T06:01:18.223Z,37.17
2022-12-18T06:03:48.725Z,40.07
2022-12-18T06:06:18.807Z,39.60
2022-12-18T06:08:48.193Z,38.20
2022-12-18T06:11:20.631Z,36.97
2022-12-18T06:13:56.340Z,40.53
2022-12-18T06:16:27.613Z,45.57
2022-12-18T06:18:59.051Z,42.90
2022-12-18T06:21:29.095Z,38.27
2022-12-18T06:23:57.971Z,41.17
2022-12-18T06:26:28.531Z,40.83
2022-12-18T06:28:57.957Z,44.27
2022-12-18T06:31:27.733Z,42.10
2022-12-18T06:33:58.064Z,42.20
2022-12-18T06:36:26.719Z,40.53
2022-12-18T06:38:55.478Z,38.57
2022-12-18T06:41:24.810Z,38.20
2022-12-18T06:43:58.120Z,44.53
2022-12-18T06:46:28.417Z,40.93
2022-12-18T06:48:58.550Z,42.23
2022-12-18T06:51:27.632Z,42.73
2022-12-18T06:53:56.318Z,41.10
2022-12-18T06:56:25.017Z,38.83
2022-12-18T06:58:53.845Z,39.93
2022-12-18T07:01:23.099Z,41.87
2022-12-18T07:03:55.819Z,41.63
2022-12-18T07:06:27.864Z,42.50
2022-12-18T07:08:57.027Z,43.90
2022-12-18T07:11:26.403Z,38.77
2022-12-18T07:13:56.031Z,38.27
2022-12-18T07:16:25.922Z,40.47
2022-12-18T07:18:56.260Z,37.13
2022-12-18T07:21:27.521Z,37.40
2022-12-18T07:23:56.241Z,45.30
2022-12-18T07:26:24.975Z,42.93
2022-12-18T07:28:56.983Z,40.30
2022-12-18T07:31:26.214Z,37.77
2022-12-18T07:33:54.957Z,38.50
2022-12-18T07:36:23.715Z,40.97
2022-12-18T07:38:54.390Z,39.60
2022-12-18T07:41:23.475Z,43.57
2022-12-18T07:43:52.310Z,42.80
2022-12-18T07:46:21.072Z,40.80
2022-12-18T07:48:50.498Z,38.27
2022-12-18T07:51:20.745Z,41.23
2022-12-18T07:53:52.505Z,42.03
2022-12-18T07:56:28.116Z,44.47
2022-12-18T07:58:58.165Z,42.03
2022-12-18T08:01:27.162Z,37.70
2022-12-18T08:03:56.079Z,42.57
2022-12-18T08:06:25.094Z,46.07
2022-12-18T08:08:55.192Z,39.10
2022-12-18T08:11:28.069Z,38.90
2022-12-18T08:13:57.112Z,39.93
2022-12-18T08:16:26.310Z,41.93
2022-12-18T08:18:56.119Z,44.73
2022-12-18T08:21:27.386Z,40.70
2022-12-18T08:23:57.679Z,40.57
2022-12-18T08:26:30.404Z,43.47
2022-12-18T08:29:01.108Z,39.70
2022-12-18T08:31:31.274Z,40.60
2022-12-18T08:34:00.197Z,40.20
2022-12-18T08:36:28.836Z,39.83
2022-12-18T08:38:58.534Z,38.57
2022-12-18T08:41:29.296Z,39.90
2022-12-18T08:44:15.146Z,36.20
2022-12-18T08:46:45.806Z,36.23
2022-12-18T08:49:15.067Z,35.80
2022-12-18T08:51:43.778Z,37.23
2022-12-18T08:54:14.396Z,40.50
2022-12-18T08:56:44.818Z,37.87
2022-12-18T08:59:19.325Z,39.43
2022-12-18T09:01:49.912Z,41.67
2022-12-18T09:04:18.990Z,39.00
2022-12-18T09:06:48.004Z,36.67
2022-12-18T09:09:16.697Z,38.93
2022-12-18T09:11:46.816Z,35.93
2022-12-18T09:14:15.448Z,35.40
2022-12-18T09:16:44.204Z,34.80
2022-12-18T09:19:12.988Z,36.87
2022-12-18T09:21:47.490Z,38.13
2022-12-18T09:24:17.409Z,41.53
2022-12-18T09:26:47.857Z,42.13
2022-12-18T09:29:17.714Z,31.73
2022-12-18T09:31:48.040Z,34.00
2022-12-18T09:34:16.775Z,35.00
2022-12-18T09:36:45.734Z,34.93
2022-12-18T09:39:15.930Z,31.70
2022-12-18T09:41:51.106Z,35.07
2022-12-18T09:44:28.237Z,33.90
2022-12-18T09:47:10.671Z,34.03
2022-12-18T09:49:44.194Z,35.13
2022-12-18T09:52:18.478Z,34.17
2022-12-18T09:54:50.465Z,30.70
2022-12-18T09:57:24.089Z,31.23
2022-12-18T09:59:57.413Z,31.63
2022-12-18T10:02:27.999Z,32.10
2022-12-18T10:05:06.456Z,31.43
2022-12-18T10:07:49.365Z,31.80
2022-12-18T10:10:28.239Z,29.20
2022-12-18T10:13:09.652Z,31.17
2022-12-18T10:15:47.553Z,32.00
2022-12-18T10:18:26.793Z,30.37
2022-12-18T10:20:59.381Z,33.90
2022-12-18T10:23:33.342Z,31.83
2022-12-18T10:26:04.838Z,32.03
2022-12-18T10:28:38.571Z,32.47
2022-12-18T10:31:08.895Z,30.60
2022-12-18T10:33:37.479Z,32.17
2022-12-18T10:36:07.383Z,33.63
2022-12-18T10:38:36.555Z,30.87
2022-12-18T10:41:06.353Z,30.27
2022-12-18T10:43:38.807Z,33.97
2022-12-18T10:46:17.032Z,32.37
2022-12-18T10:48:55.170Z,32.13
2022-12-18T10:51:27.132Z,33.13
2022-12-18T10:54:03.021Z,29.73
2022-12-18T10:56:35.662Z,32.20
2022-12-18T10:59:08.095Z,32.97
2022-12-18T11:01:49.974Z,32.30
2022-12-18T11:04:22.061Z,29.70
2022-12-18T11:06:57.967Z,30.90
2022-12-18T11:09:28.484Z,30.87
2022-12-18T11:12:00.330Z,29.53
2022-12-18T11:14:33.492Z,25.10
2022-12-18T11:17:24.923Z,25.60
2022-12-18T11:19:56.819Z,29.97
2022-12-18T11:22:28.921Z,25.97
2022-12-18T11:27:51.712Z,25.77
2022-12-18T11:30:26.542Z,25.37
2022-12-18T11:32:59.168Z,25.73
2022-12-18T11:35:37.062Z,27.03
2022-12-18T11:38:14.834Z,24.37
2022-12-18T11:40:47.100Z,27.67
2022-12-18T11:43:20.224Z,27.17
2022-12-18T11:45:55.463Z,28.67
2022-12-18T11:48:28.121Z,26.10
2022-12-18T11:50:59.138Z,26.20
2022-12-18T11:53:29.164Z,27.00
2022-12-18T11:56:27.297Z,25.53
2022-12-18T11:59:09.263Z,23.30
2022-12-18T12:01:48.582Z,26.20
2022-12-18T12:04:38.244Z,24.93
2022-12-18T12:07:20.083Z,25.40
2022-12-18T12:09:56.057Z,24.83
2022-12-18T12:12:48.902Z,23.30
2022-12-18T12:15:28.357Z,26.40
2022-12-18T12:18:11.514Z,25.37
2022-12-18T12:20:50.188Z,26.70
2022-12-18T12:23:39.543Z,25.93
2022-12-18T12:26:12.286Z,28.53
2022-12-18T12:28:58.607Z,25.47
2022-12-18T12:31:44.580Z,27.43
2022-12-18T12:34:20.465Z,26.97
2022-12-18T12:37:03.702Z,26.03
2022-12-18T12:39:36.721Z,24.37
2022-12-18T12:42:25.758Z,25.47
2022-12-18T12:44:58.044Z,25.00
2022-12-18T12:47:32.246Z,25.20
2022-12-18T12:50:08.055Z,29.13
2022-12-18T12:52:41.441Z,28.77
2022-12-18T12:55:18.336Z,27.47
2022-12-18T12:57:56.192Z,27.13
2022-12-18T13:00:26.842Z,29.27
2022-12-18T13:03:04.285Z,25.23
2022-12-18T13:05:42.827Z,24.87
2022-12-18T13:08:13.058Z,22.90
2022-12-18T13:10:44.327Z,26.47
2022-12-18T13:13:13.515Z,25.43
2022-12-18T13:15:47.258Z,21.97
2022-12-18T13:18:21.895Z,27.27
2022-12-18T13:21:04.403Z,24.23
2022-12-18T13:23:37.574Z,25.00
2022-12-18T13:26:33.291Z,22.87
2022-12-18T13:29:05.328Z,22.93
2022-12-18T13:32:10.033Z,26.53
2022-12-18T13:34:39.009Z,24.23
2022-12-18T13:37:42.055Z,22.80
2022-12-18T13:40:56.810Z,23.63
2022-12-18T13:43:31.226Z,24.67
2022-12-18T13:46:21.360Z,22.63
2022-12-18T13:48:57.317Z,24.10
2022-12-18T13:51:27.438Z,27.07
2022-12-18T13:54:02.048Z,25.47
2022-12-18T13:56:33.482Z,24.80
2022-12-18T13:59:27.398Z,21.90
2022-12-18T14:01:58.329Z,23.00
2022-12-18T14:04:29.993Z,23.73
2022-12-18T14:07:03.874Z,25.37
2022-12-18T14:09:40.546Z,23.37
2022-12-18T14:12:34.416Z,24.07
2022-12-18T14:15:03.235Z,23.10
2022-12-18T14:17:33.742Z,24.47
2022-12-18T14:20:03.535Z,26.03
2022-12-18T14:22:33.391Z,20.83
2022-12-18T14:25:17.995Z,25.70
2022-12-18T14:27:49.060Z,25.43
2022-12-18T14:30:32.133Z,25.73
2022-12-18T14:33:32.011Z,23.43
2022-12-18T14:36:02.316Z,23.27
2022-12-18T14:38:33.582Z,23.87
2022-12-18T14:41:07.022Z,24.37
2022-12-18T14:43:37.474Z,24.03
2022-12-18T14:46:07.808Z,25.10
2022-12-18T14:48:39.898Z,23.47
2022-12-18T14:51:17.899Z,25.20
2022-12-18T14:53:54.355Z,25.50
2022-12-18T14:56:27.262Z,28.57
2022-12-18T14:59:27.471Z,29.67
2022-12-18T15:02:04.230Z,32.33
2022-12-18T15:04:36.840Z,26.53
2022-12-18T15:07:17.224Z,29.23
2022-12-18T15:10:04.799Z,30.43
2022-12-18T15:12:38.372Z,28.60
2022-12-18T15:15:28.128Z,27.83
2022-12-18T15:18:00.047Z,29.10
2022-12-18T15:20:28.840Z,32.00
2022-12-18T15:22:57.350Z,32.43
2022-12-18T15:25:33.102Z,30.43
2022-12-18T15:28:03.208Z,32.43
2022-12-18T15:30:33.226Z,27.53
2022-12-18T15:33:25.916Z,31.03
2022-12-18T15:35:59.198Z,28.80
2022-12-18T15:38:27.852Z,34.13
2022-12-18T15:40:57.171Z,30.53
2022-12-18T15:43:37.384Z,29.90
2022-12-18T15:46:08.595Z,30.77
2022-12-18T15:48:42.352Z,31.03
2022-12-18T15:51:17.124Z,30.13
2022-12-18T15:53:46.119Z,30.37
2022-12-18T15:56:33.138Z,30.00
2022-12-18T15:59:03.901Z,25.00
2022-12-18T16:02:03.210Z,29.03
2022-12-18T16:04:32.523Z,30.13
2022-12-18T16:07:19.305Z,30.43
2022-12-18T16:09:50.808Z,32.57
2022-12-18T16:12:22.954Z,31.83
2022-12-18T16:14:53.067Z,28.80
2022-12-18T16:17:22.139Z,29.73
2022-12-18T16:19:50.753Z,29.87
2022-12-18T16:22:23.403Z,31.10
2022-12-18T16:24:52.483Z,29.47
2022-12-18T16:27:21.766Z,32.27
2022-12-18T16:29:50.734Z,31.00
2022-12-18T16:32:23.436Z,26.00
2022-12-18T16:34:52.217Z,29.43
2022-12-18T16:37:21.024Z,28.50
2022-12-18T16:39:49.699Z,31.93
2022-12-18T16:42:23.826Z,29.80
2022-12-18T16:44:52.686Z,31.07
2022-12-18T16:47:22.711Z,31.40
2022-12-18T16:49:53.351Z,29.33
2022-12-18T16:52:22.238Z,29.77
2022-12-18T16:54:50.819Z,29.03
2022-12-18T16:57:21.537Z,31.93
2022-12-18T16:59:53.881Z,30.57
2022-12-18T17:02:25.686Z,29.53
2022-12-18T17:04:56.524Z,29.53
2022-12-18T17:07:25.826Z,33.07
2022-12-18T17:09:54.705Z,32.83
2022-12-18T17:12:23.686Z,31.37
2022-12-18T17:14:52.394Z,30.13
2022-12-18T17:17:23.571Z,27.00
2022-12-18T17:19:54.390Z,29.97
2022-12-18T17:22:24.466Z,34.00
2022-12-18T17:24:53.264Z,30.77
2022-12-18T17:27:21.890Z,33.50
2022-12-18T17:29:50.593Z,33.03
2022-12-18T17:32:19.359Z,33.07
2022-12-18T17:34:48.139Z,31.60
2022-12-18T17:37:18.195Z,36.43
2022-12-18T17:39:46.917Z,32.73
2022-12-18T17:42:15.999Z,31.93
2022-12-18T17:44:45.029Z,34.70
2022-12-18T17:47:14.172Z,32.53
2022-12-18T17:49:42.842Z,30.03
2022-12-18T17:52:11.931Z,32.43
2022-12-18T17:54:43.971Z,34.53
2022-12-18T17:57:12.939Z,35.37
2022-12-18T17:59:41.669Z,33.57
2022-12-18T18:02:12.680Z,33.73
2022-12-18T18:04:41.587Z,34.83
2022-12-18T18:07:10.253Z,33.63
2022-12-18T18:09:41.841Z,37.83
2022-12-18T18:12:27.606Z,35.30
2022-12-18T18:14:56.286Z,33.87
2022-12-18T18:17:24.817Z,32.87
2022-12-18T18:19:53.413Z,34.97
2022-12-18T18:22:22.045Z,41.57
2022-12-18T18:24:54.668Z,30.70
2022-12-18T18:27:23.500Z,33.20
2022-12-18T18:29:52.324Z,32.33
2022-12-18T18:32:26.254Z,30.03
2022-12-18T18:34:55.103Z,35.97
2022-12-18T18:37:24.050Z,28.57
2022-12-18T18:39:54.200Z,29.97
2022-12-18T18:42:22.903Z,31.73
2022-12-18T18:44:51.529Z,32.47
2022-12-18T18:47:22.213Z,33.63
2022-12-18T18:49:50.876Z,30.67
2022-12-18T18:52:19.468Z,34.07
2022-12-18T18:55:11.558Z,33.60
2022-12-18T18:57:39.859Z,32.13
2022-12-18T19:00:10.220Z,35.60
2022-12-18T19:02:39.162Z,32.17
2022-12-18T19:05:08.678Z,32.40
2022-12-18T19:07:37.648Z,33.57
2022-12-18T19:10:07.384Z,33.47
2022-12-18T19:12:53.807Z,33.27
2022-12-18T19:15:24.967Z,37.10
2022-12-18T19:17:54.173Z,37.80
2022-12-18T19:20:22.710Z,32.77
2022-12-18T19:22:55.073Z,38.03
2022-12-18T19:25:39.974Z,35.83
2022-12-18T19:28:21.155Z,38.10
2022-12-18T19:30:58.960Z,37.37
2022-12-18T19:33:45.182Z,37.17
2022-12-18T19:36:21.663Z,33.03
2022-12-18T19:38:50.732Z,33.67
2022-12-18T19:41:20.580Z,36.50
2022-12-18T19:43:49.519Z,34.97
2022-12-18T19:46:22.563Z,35.10
2022-12-18T19:48:51.788Z,36.27
2022-12-18T19:51:22.556Z,36.10
2022-12-18T19:53:57.801Z,35.53
2022-12-18T19:56:30.631Z,35.73
2022-12-18T19:59:00.096Z,35.60
2022-12-18T20:01:31.944Z,33.97
2022-12-18T20:04:01.226Z,34.50
2022-12-18T20:06:34.022Z,37.10
2022-12-18T20:09:07.378Z,34.60
2022-12-18T20:11:41.421Z,33.60
2022-12-18T20:14:10.291Z,32.90
2022-12-18T20:16:40.441Z,35.33
2022-12-18T20:19:10.245Z,32.37
2022-12-18T20:21:39.497Z,32.40
2022-12-18T20:24:09.164Z,33.27
2022-12-18T20:26:41.972Z,30.80
2022-12-18T20:29:10.949Z,34.43
2022-12-18T20:31:41.660Z,33.70
2022-12-18T20:34:10.358Z,32.40
2022-12-18T20:36:39.837Z,32.70
2022-12-18T20:39:11.007Z,34.17
2022-12-18T20:41:41.275Z,31.43
2022-12-18T20:44:23.726Z,30.87
2022-12-18T20:46:56.609Z,36.20
2022-12-18T20:49:27.483Z,29.47
2022-12-18T20:51:58.534Z,27.63
2022-12-18T20:54:28.659Z,30.63
2022-12-18T20:56:58.101Z,30.67
2022-12-18T20:59:26.989Z,27.10
2022-12-18T21:01:57.481Z,29.10
2022-12-18T21:04:26.564Z,32.20
2022-12-18T21:07:01.909Z,27.83
2022-12-18T21:09:36.937Z,27.47
2022-12-18T21:12:25.856Z,30.83
2022-12-18T21:14:54.640Z,32.17
2022-12-18T21:17:24.638Z,28.63
2022-12-18T21:19:55.509Z,28.53
2022-12-18T21:22:24.310Z,31.43
2022-12-18T21:24:52.918Z,28.40
2022-12-18T21:27:21.999Z,30.27
2022-12-18T21:29:50.904Z,27.30
2022-12-18T21:32:21.167Z,28.80
2022-12-18T21:34:54.306Z,29.10
2022-12-18T21:37:22.770Z,27.00
2022-12-18T21:39:51.300Z,32.53
2022-12-18T21:42:43.177Z,29.70
2022-12-18T21:45:13.186Z,31.93
2022-12-18T21:47:41.776Z,29.13
2022-12-18T21:50:11.985Z,30.30
2022-12-18T21:52:40.507Z,28.47
2022-12-18T21:55:10.331Z,30.37
2022-12-18T21:57:39.903Z,28.33
2022-12-18T22:00:19.120Z,30.57
2022-12-18T22:03:13.401Z,29.07
2022-12-18T22:05:39.297Z,31.10
2022-12-18T22:08:07.959Z,32.43
2022-12-18T22:10:37.081Z,31.07
2022-12-18T22:13:05.742Z,31.07
2022-12-18T22:15:34.666Z,29.73
2022-12-18T22:18:03.341Z,30.87
2022-12-18T22:20:31.976Z,28.27
2022-12-18T22:23:05.743Z,31.27
2022-12-18T22:25:35.218Z,27.70
2022-12-18T22:28:23.396Z,30.20
2022-12-18T22:30:56.361Z,29.67
2022-12-18T22:33:28.857Z,31.70
2022-12-18T22:35:57.434Z,32.70
2022-12-18T22:38:27.917Z,31.50
2022-12-18T22:40:56.724Z,30.23
2022-12-18T22:43:25.625Z,30.00
2022-12-18T22:45:54.253Z,29.00
2022-12-18T22:48:23.145Z,31.83
2022-12-18T22:50:53.065Z,33.27
2022-12-18T22:53:27.816Z,28.80
2022-12-18T22:56:02.365Z,29.70
2022-12-18T22:58:30.990Z,29.77
2022-12-18T23:00:59.546Z,31.17
2022-12-18T23:03:28.424Z,32.83
2022-12-18T23:06:05.320Z,28.80
2022-12-18T23:08:36.303Z,29.10
2022-12-18T23:11:06.239Z,32.83
2022-12-18T23:13:41.457Z,32.63
2022-12-18T23:16:15.528Z,32.07
2022-12-18T23:18:44.954Z,32.60
2022-12-18T23:21:16.163Z,33.17
2022-12-18T23:23:48.182Z,32.77
2022-12-18T23:26:20.032Z,36.17
2022-12-18T23:28:50.385Z,33.83
2022-12-18T23:31:23.658Z,36.00
2022-12-18T23:33:53.469Z,34.07
2022-12-18T23:36:25.711Z,33.63
2022-12-18T23:38:57.708Z,34.97
2022-12-18T23:41:28.271Z,34.73
2022-12-18T23:43:57.775Z,29.53
2022-12-18T23:46:28.882Z,34.83
2022-12-18T23:49:06.609Z,35.27
2022-12-18T23:51:35.244Z,33.50
2022-12-18T23:54:06.515Z,35.93
2022-12-18T23:56:35.936Z,33.53
2022-12-18T23:59:04.594Z,34.47
